Time;durP1;ratioP1;P1;durP2;ratioP2;P2;SDS_P1;SDS_P2;PMS_P1;PMS_P2;Temp;Humidity;BMP_temperature;BMP_pressure;BME280_temperature;BME280_humidity;BME280_pressure;Samples;Min_cycle;Max_cycle;Signal;HPM_P1;HPM_P2
2022/12/28 00:02:13;;;;;;;28.70;24.10;;;;;;;1.73;82.62;98773.23;104959;1326;22170;-88
2022/12/28 00:04:41;;;;;;;25.10;21.30;;;;;;;1.69;82.74;98770.63;105277;1320;22170;-92
2022/12/28 00:07:09;;;;;;;27.40;22.90;;;;;;;1.64;82.46;98774.59;105350;1315;22239;-90
2022/12/28 00:09:37;;;;;;;25.10;22.00;;;;;;;1.62;82.90;98773.02;105563;1317;22206;-91
2022/12/28 00:12:05;;;;;;;31.40;26.80;;;;;;;1.60;83.16;98772.58;105021;1326;22212;-92
2022/12/28 00:14:33;;;;;;;28.40;22.60;;;;;;;1.57;82.81;98770.89;105652;1311;22222;-90
2022/12/28 00:17:01;;;;;;;29.70;22.60;;;;;;;1.55;82.79;98766.42;105627;1311;22139;-92
2022/12/28 00:19:29;;;;;;;35.20;28.70;;;;;;;1.53;83.03;98760.88;105130;1326;22259;-92
2022/12/28 00:21:57;;;;;;;27.80;22.60;;;;;;;1.47;82.83;98763.72;105056;1320;22880;-92
2022/12/28 00:24:25;;;;;;;61.00;43.10;;;;;;;1.43;83.04;98758.04;105013;1326;22141;-92
2022/12/28 00:26:55;;;;;;;36.60;29.10;;;;;;;1.43;82.96;98764.23;105281;1298;22908;-91
2022/12/28 00:29:23;;;;;;;51.00;45.60;;;;;;;1.44;82.92;98764.35;105038;1326;22321;-90
2022/12/28 00:31:51;;;;;;;67.30;56.00;;;;;;;1.41;82.99;98762.63;105004;1327;22241;-90
2022/12/28 00:34:23;;;;;;;54.20;47.60;;;;;;;1.38;83.10;98762.00;104914;1327;22254;-92
2022/12/28 00:36:52;;;;;;;52.30;46.60;;;;;;;1.33;82.90;98764.58;105340;1312;22184;-93
2022/12/28 00:39:40;;;;;;;42.00;35.80;;;;;;;1.29;83.36;98765.60;105036;1327;22235;-90
2022/12/28 00:42:09;;;;;;;45.60;38.80;;;;;;;1.28;83.25;98773.64;105062;1326;22202;-91
2022/12/28 00:44:37;;;;;;;35.40;30.80;;;;;;;1.30;83.00;98774.56;105435;1319;22150;-91
2022/12/28 00:47:05;;;;;;;36.90;32.90;;;;;;;1.34;83.07;98772.45;105131;1315;22272;-92
2022/12/28 00:49:33;;;;;;;32.30;28.90;;;;;;;1.36;82.99;98768.27;105620;1302;22936;-89
2022/12/28 00:52:01;;;;;;;32.10;28.70;;;;;;;1.35;83.15;98766.08;105064;1327;22247;-92
2022/12/28 00:54:29;;;;;;;28.20;25.30;;;;;;;1.37;83.35;98770.10;105414;1307;22088;-92
2022/12/28 00:56:57;;;;;;;32.20;27.20;;;;;;;1.35;83.08;98772.64;105668;1302;22248;-93
2022/12/28 00:59:25;;;;;;;33.00;28.40;;;;;;;1.33;83.16;98776.27;105565;1302;22098;-92
2022/12/28 01:01:53;;;;;;;32.40;27.50;;;;;;;1.32;83.17;98773.73;105012;1322;22266;-92
2022/12/28 01:04:21;;;;;;;28.90;24.80;;;;;;;1.36;83.15;98773.73;105552;1298;22258;-91
2022/12/28 01:06:49;;;;;;;26.70;23.90;;;;;;;1.39;83.20;98773.88;105094;1320;22158;-92
2022/12/28 01:09:17;;;;;;;22.40;20.00;;;;;;;1.42;83.26;98775.77;104981;1327;22260;-93
2022/12/28 01:11:46;;;;;;;23.60;20.50;;;;;;;1.44;83.40;98777.11;105035;1326;22847;-94
2022/12/28 01:14:14;;;;;;;22.70;20.30;;;;;;;1.42;83.24;98777.48;105376;1315;22878;-93
2022/12/28 01:16:42;;;;;;;23.20;19.50;;;;;;;1.40;83.30;98775.39;105598;1305;22106;-92
2022/12/28 01:19:16;;;;;;;22.20;19.20;;;;;;;1.38;83.27;98774.86;104985;1321;22803;-94
2022/12/28 01:21:47;;;;;;;24.00;19.60;;;;;;;1.39;83.41;98772.09;105043;1324;22235;-93
2022/12/28 01:24:16;;;;;;;23.40;20.90;;;;;;;1.42;83.23;98766.17;105044;1327;22262;-93
2022/12/28 01:26:44;;;;;;;21.60;18.90;;;;;;;1.45;83.20;98761.70;105013;1320;22241;-92
2022/12/28 01:29:12;;;;;;;24.60;21.50;;;;;;;1.45;83.19;98765.90;105520;1320;22505;-90
2022/12/28 01:31:40;;;;;;;23.60;21.10;;;;;;;1.43;83.16;98765.92;105035;1322;22151;-92
2022/12/28 01:34:08;;;;;;;23.20;20.40;;;;;;;1.38;83.29;98767.16;105565;1305;22057;-85
2022/12/28 01:36:36;;;;;;;23.70;21.00;;;;;;;1.29;83.16;98763.26;105024;1327;22501;-92
2022/12/28 01:39:05;;;;;;;21.30;17.50;;;;;;;1.22;83.21;98767.48;105102;1327;21877;-90
2022/12/28 01:41:37;;;;;;;22.00;19.70;;;;;;;1.15;83.36;98761.45;105201;1327;22059;-91
2022/12/28 01:44:09;;;;;;;24.00;21.20;;;;;;;1.10;83.15;98759.32;104970;1327;22172;-94
2022/12/28 01:46:53;;;;;;;22.50;19.50;;;;;;;1.06;83.26;98751.81;105096;1327;22212;-92
2022/12/28 01:49:28;;;;;;;25.10;22.20;;;;;;;1.02;83.41;98756.58;105517;1305;22235;-92
2022/12/28 01:52:06;;;;;;;24.10;21.50;;;;;;;0.98;83.41;98760.69;105118;1326;23430;-89
2022/12/28 01:54:43;;;;;;;25.90;22.10;;;;;;;0.92;83.54;98757.05;105089;1327;22113;-87
2022/12/28 01:57:12;;;;;;;26.90;22.90;;;;;;;0.86;83.47;98751.61;105094;1321;21995;-86
2022/12/28 01:59:46;;;;;;;25.40;20.90;;;;;;;0.81;83.30;98753.16;104951;1324;22103;-86
2022/12/28 02:02:14;;;;;;;22.10;19.80;;;;;;;0.78;83.29;98747.23;105093;1321;22042;-89
2022/12/28 02:04:45;;;;;;;22.90;19.80;;;;;;;0.74;83.45;98749.85;105058;1321;22237;-91
2022/12/28 02:07:20;;;;;;;22.10;19.90;;;;;;;0.71;83.63;98752.09;105410;1318;22758;-91
2022/12/28 02:09:49;;;;;;;25.70;22.50;;;;;;;0.64;83.56;98749.48;105359;1314;22984;-88
2022/12/28 02:12:38;;;;;;;25.70;22.60;;;;;;;0.55;83.72;98746.40;105473;1305;22223;-91
2022/12/28 02:15:07;;;;;;;22.40;20.20;;;;;;;0.47;83.63;98743.20;104890;1327;22318;-89
2022/12/28 02:17:35;;;;;;;22.10;19.90;;;;;;;0.43;83.63;98737.36;105116;1308;22781;-91
2022/12/28 02:20:05;;;;;;;22.60;19.80;;;;;;;0.41;83.72;98728.64;104932;1327;22205;-88
2022/12/28 02:22:48;;;;;;;22.70;20.30;;;;;;;0.43;83.62;98726.30;104859;1327;22256;-91
2022/12/28 02:26:04;;;;;;;21.90;19.60;;;;;;;0.44;83.68;98725.60;104911;1326;22884;-91
2022/12/28 02:28:57;;;;;;;31.20;27.80;;;;;;;0.41;83.99;98723.46;104724;1326;22953;-92
2022/12/28 02:31:42;;;;;;;26.60;23.90;;;;;;;0.34;84.07;98729.82;104934;1326;22221;-92
2022/12/28 02:34:31;;;;;;;24.60;21.90;;;;;;;0.29;84.26;98731.55;105349;1312;22174;-90
2022/12/28 02:37:07;;;;;;;25.20;21.30;;;;;;;0.23;84.10;98729.19;105534;1320;22207;-89
2022/12/28 02:39:45;;;;;;;23.30;20.90;;;;;;;0.21;84.02;98725.13;105005;1327;22250;-92
2022/12/28 02:42:16;;;;;;;24.50;21.80;;;;;;;0.21;84.08;98716.59;104963;1314;22295;-91
2022/12/28 02:50:43;;;;;;;30.50;27.40;;;;;;;0.17;84.05;98689.27;105024;1326;22983;-92
2022/12/28 02:53:20;;;;;;;29.40;26.60;;;;;;;0.11;84.02;98687.66;105084;1327;22316;-90
2022/12/28 02:56:07;;;;;;;29.30;25.20;;;;;;;-0.00;83.90;98691.58;105013;1327;22084;-90
2022/12/28 02:58:48;;;;;;;29.70;26.70;;;;;;;-0.09;83.78;98690.80;104908;1326;22217;-88
2022/12/28 03:01:41;;;;;;;25.90;23.30;;;;;;;-0.18;83.76;98686.00;104908;1322;22493;-91
2022/12/28 03:04:43;;;;;;;28.50;25.60;;;;;;;-0.24;84.00;98682.19;105326;1320;22204;-92
2022/12/28 03:10:27;;;;;;;37.50;34.20;;;;;;;-0.36;84.12;98676.19;105274;1320;22184;-92
2022/12/28 03:13:04;;;;;;;27.70;25.10;;;;;;;-0.49;84.02;98675.34;104906;1327;22234;-91
2022/12/28 03:15:36;;;;;;;25.30;22.70;;;;;;;-0.58;84.22;98673.05;105047;1319;22195;-93
2022/12/28 03:32:19;;;;;;;34.20;31.10;;;;;;;-1.27;85.28;98680.48;104989;1327;22108;-93
2022/12/28 03:34:48;;;;;;;26.90;24.20;;;;;;;-1.33;85.05;98681.66;105032;1313;22671;-91
2022/12/28 03:37:37;;;;;;;25.30;22.80;;;;;;;-1.34;85.14;98687.08;105252;1310;23071;-90
2022/12/28 03:40:24;;;;;;;26.90;24.10;;;;;;;-1.32;85.14;98689.11;105447;1312;22108;-89
2022/12/28 03:45:56;;;;;;;25.30;23.00;;;;;;;-1.27;85.25;98680.85;105239;1325;22124;-86
2022/12/28 03:48:25;;;;;;;27.90;24.70;;;;;;;-1.26;85.32;98677.92;104898;1323;22202;-92
2022/12/28 03:50:54;;;;;;;27.70;25.20;;;;;;;-1.25;85.45;98669.98;105031;1327;22280;-86
2022/12/28 03:53:29;;;;;;;28.40;25.70;;;;;;;-1.26;85.40;98665.88;105395;1327;22130;-86
2022/12/28 03:56:14;;;;;;;26.80;23.90;;;;;;;-1.25;85.57;98656.45;105408;1327;22145;-85
2022/12/28 03:58:44;;;;;;;23.50;21.00;;;;;;;-1.24;85.41;98657.13;105079;1325;22092;-92
2022/12/28 04:01:15;;;;;;;25.30;22.70;;;;;;;-1.21;85.63;98659.04;104993;1327;22219;-91
2022/12/28 04:03:43;;;;;;;23.10;20.70;;;;;;;-1.21;85.16;98655.98;104883;1327;22191;-91
2022/12/28 04:06:17;;;;;;;25.00;22.50;;;;;;;-1.21;85.27;98655.83;104894;1326;22150;-91
2022/12/28 04:08:46;;;;;;;25.40;22.90;;;;;;;-1.25;85.46;98654.98;105022;1326;22099;-92
2022/12/28 04:11:14;;;;;;;28.20;25.50;;;;;;;-1.32;85.69;98650.63;105013;1327;22873;-92
2022/12/28 04:13:44;;;;;;;56.20;50.70;;;;;;;-1.35;85.83;98653.19;104860;1327;22141;-92
2022/12/28 04:16:15;;;;;;;34.50;30.90;;;;;;;-1.41;85.61;98652.54;104847;1322;22210;-92
2022/12/28 04:18:44;;;;;;;29.70;26.60;;;;;;;-1.51;85.63;98649.16;104836;1327;22125;-91
2022/12/28 04:21:14;;;;;;;26.50;23.90;;;;;;;-1.60;85.74;98648.73;104934;1322;22239;-91
2022/12/28 04:23:43;;;;;;;31.10;27.80;;;;;;;-1.61;85.83;98644.95;104910;1327;22144;-90
2022/12/28 04:26:20;;;;;;;23.60;20.50;;;;;;;-1.64;86.18;98643.16;104969;1327;22199;-92
2022/12/28 04:28:51;;;;;;;27.90;25.00;;;;;;;-1.66;86.33;98643.65;104865;1327;22193;-92
2022/12/28 04:31:37;;;;;;;37.60;33.80;;;;;;;-1.66;86.55;98644.54;105341;1315;22180;-90
2022/12/28 04:34:14;;;;;;;41.20;36.80;;;;;;;-1.73;86.73;98633.45;104965;1327;22143;-91
2022/12/28 04:36:47;;;;;;;42.50;38.50;;;;;;;-1.83;86.85;98627.45;105310;1320;22127;-92
2022/12/28 04:39:17;;;;;;;28.70;25.90;;;;;;;-1.89;86.90;98621.12;105016;1326;22169;-91
2022/12/28 04:41:45;;;;;;;30.50;27.40;;;;;;;-1.89;86.92;98613.86;104941;1321;22237;-89
2022/12/28 04:44:13;;;;;;;36.10;32.40;;;;;;;-1.88;87.05;98615.33;104994;1322;22859;-90
2022/12/28 04:46:41;;;;;;;38.90;35.10;;;;;;;-1.91;87.19;98612.89;104868;1326;22179;-90
2022/12/28 04:49:09;;;;;;;41.10;37.20;;;;;;;-1.93;87.45;98609.67;105445;1302;22199;-90
2022/12/28 04:51:37;;;;;;;32.60;29.40;;;;;;;-1.98;87.89;98611.81;104931;1327;23321;-85
2022/12/28 04:54:05;;;;;;;34.90;31.50;;;;;;;-2.05;87.96;98612.45;105413;1313;22285;-90
2022/12/28 04:56:33;;;;;;;34.50;31.00;;;;;;;-2.08;87.85;98612.13;105362;1315;22922;-91
2022/12/28 04:59:01;;;;;;;28.50;25.90;;;;;;;-2.11;87.54;98609.19;104952;1327;22216;-92
2022/12/28 05:01:30;;;;;;;29.50;26.40;;;;;;;-2.09;87.60;98609.80;105119;1325;22128;-93
2022/12/28 05:03:59;;;;;;;29.00;25.60;;;;;;;-2.04;87.67;98605.46;104928;1327;22195;-91
2022/12/28 05:06:33;;;;;;;28.40;25.50;;;;;;;-2.00;87.66;98602.31;105845;1297;22064;-86
2022/12/28 05:09:08;;;;;;;34.30;30.50;;;;;;;-1.99;87.77;98606.48;105754;1296;23584;-93
2022/12/28 05:11:45;;;;;;;33.70;30.60;;;;;;;-2.05;88.50;98611.51;105774;1295;22476;-85
2022/12/28 05:14:13;;;;;;;33.10;29.70;;;;;;;-2.15;88.30;98612.42;105678;1286;22155;-86
2022/12/28 05:16:42;;;;;;;27.00;24.50;;;;;;;-2.18;88.30;98608.19;105424;1322;21920;-91
2022/12/28 05:19:09;;;;;;;25.30;22.70;;;;;;;-2.13;88.29;98608.98;106092;1299;22185;-93
2022/12/28 05:21:39;;;;;;;26.30;23.80;;;;;;;-2.06;88.41;98603.11;105829;1301;22073;-91
2022/12/28 05:24:07;;;;;;;48.40;29.50;;;;;;;-1.99;88.27;98596.90;105517;1315;22210;-91
2022/12/28 05:26:35;;;;;;;32.70;29.60;;;;;;;-1.92;88.34;98592.84;105727;1319;22238;-89
2022/12/28 05:29:04;;;;;;;30.60;27.50;;;;;;;-1.89;88.18;98592.05;105418;1324;22221;-90
2022/12/28 05:31:32;;;;;;;27.20;24.70;;;;;;;-1.89;88.08;98590.27;105879;1301;22177;-90
2022/12/28 05:34:00;;;;;;;31.10;28.30;;;;;;;-1.95;88.01;98587.36;106037;1302;22083;-94
2022/12/28 05:36:28;;;;;;;41.70;37.80;;;;;;;-2.04;88.51;98586.13;105468;1326;22204;-87
2022/12/28 05:38:56;;;;;;;25.00;22.60;;;;;;;-2.13;88.44;98578.99;105531;1323;22124;-90
2022/12/28 05:41:26;;;;;;;24.90;22.30;;;;;;;-2.13;88.55;98584.04;105077;1325;22825;-91
2022/12/28 05:43:56;;;;;;;21.00;19.00;;;;;;;-2.12;88.44;98583.64;105600;1319;22884;-91
2022/12/28 05:46:28;;;;;;;20.70;18.70;;;;;;;-2.08;88.66;98585.48;105343;1325;22189;-91
2022/12/28 05:48:57;;;;;;;24.60;22.10;;;;;;;-2.05;88.92;98583.39;105309;1325;22209;-91
2022/12/28 05:51:28;;;;;;;22.20;20.00;;;;;;;-1.98;88.64;98575.52;105441;1324;22673;-92
2022/12/28 05:53:58;;;;;;;23.30;20.80;;;;;;;-1.90;88.52;98570.63;105387;1324;22237;-90
2022/12/28 05:56:28;;;;;;;22.00;19.20;;;;;;;-1.91;88.78;98571.14;105715;1309;22177;-90
2022/12/28 05:58:58;;;;;;;24.50;20.50;;;;;;;-1.96;88.86;98573.79;105992;1315;22264;-90
2022/12/28 06:01:35;;;;;;;22.50;20.10;;;;;;;-1.94;89.11;98573.02;105950;1320;22236;-93
2022/12/28 06:04:06;;;;;;;24.00;21.50;;;;;;;-1.89;89.04;98570.02;105706;1316;22196;-93
2022/12/28 06:06:35;;;;;;;20.80;17.60;;;;;;;-1.89;88.79;98570.55;105504;1329;22274;-93
2022/12/28 06:09:03;;;;;;;18.20;16.40;;;;;;;-1.88;88.85;98568.48;105556;1325;22939;-93
2022/12/28 06:11:31;;;;;;;18.50;16.40;;;;;;;-1.80;88.89;98568.79;105665;1319;22103;-92
2022/12/28 06:14:02;;;;;;;18.90;16.60;;;;;;;-1.74;88.68;98563.48;105158;1329;22081;-90
2022/12/28 06:16:33;;;;;;;24.50;22.20;;;;;;;-1.66;88.88;98561.61;105064;1328;22714;-92
2022/12/28 06:19:06;;;;;;;31.60;28.60;;;;;;;-1.62;88.76;98554.38;105431;1304;21957;-94
2022/12/28 06:21:36;;;;;;;24.30;21.80;;;;;;;-1.58;88.85;98553.20;105179;1320;22256;-92
2022/12/28 06:24:05;;;;;;;20.80;18.70;;;;;;;-1.59;88.88;98552.90;105138;1327;22276;-92
2022/12/28 06:26:35;;;;;;;18.20;15.90;;;;;;;-1.55;88.80;98550.46;105127;1328;22231;-94
2022/12/28 06:29:03;;;;;;;18.20;15.50;;;;;;;-1.46;88.99;98549.28;105242;1327;22233;-89
2022/12/28 06:31:34;;;;;;;18.00;16.00;;;;;;;-1.36;89.17;98548.73;105490;1314;21863;-89
2022/12/28 06:34:05;;;;;;;21.40;18.40;;;;;;;-1.28;88.92;98550.27;105243;1326;22264;-90
2022/12/28 06:36:36;;;;;;;20.00;17.20;;;;;;;-1.24;88.78;98549.08;105136;1328;22239;-92
2022/12/28 06:39:07;;;;;;;27.60;18.90;;;;;;;-1.22;88.87;98546.36;105585;1317;22009;-91
2022/12/28 06:41:35;;;;;;;23.20;20.90;;;;;;;-1.23;88.78;98546.11;105277;1298;22567;-91
2022/12/28 06:44:08;;;;;;;31.70;28.00;;;;;;;-1.27;88.57;98544.58;105491;1318;22775;-93
2022/12/28 06:46:36;;;;;;;41.80;37.40;;;;;;;-1.34;88.56;98542.55;105581;1324;22152;-90
2022/12/28 06:49:05;;;;;;;45.90;39.50;;;;;;;-1.34;88.59;98539.35;105552;1324;23379;-91
2022/12/28 06:51:37;;;;;;;49.20;44.30;;;;;;;-1.32;88.55;98539.39;105637;1322;22207;-90
2022/12/28 06:54:06;;;;;;;39.90;36.00;;;;;;;-1.30;88.66;98540.79;105409;1323;22284;-93
2022/12/28 06:56:35;;;;;;;37.40;33.80;;;;;;;-1.39;88.68;98534.87;105595;1322;22128;-93
2022/12/28 06:59:03;;;;;;;42.10;38.20;;;;;;;-1.42;89.02;98534.31;105460;1324;22224;-89
2022/12/28 07:01:35;;;;;;;33.00;29.90;;;;;;;-1.39;89.24;98533.27;105374;1324;22136;-91
2022/12/28 07:04:04;;;;;;;31.80;26.50;;;;;;;-1.35;89.31;98533.73;105952;1300;22878;-92
2022/12/28 07:06:36;;;;;;;25.50;23.00;;;;;;;-1.27;89.20;98529.81;105215;1324;22169;-90
2022/12/28 07:09:08;;;;;;;23.70;21.30;;;;;;;-1.17;89.01;98525.92;105654;1306;22978;-91
2022/12/28 07:11:36;;;;;;;23.80;21.30;;;;;;;-1.07;89.00;98518.12;105258;1324;22888;-90
2022/12/28 07:14:04;;;;;;;24.10;21.60;;;;;;;-0.99;89.14;98516.02;105753;1317;22174;-91
2022/12/28 07:16:32;;;;;;;25.10;22.50;;;;;;;-0.90;89.34;98514.85;105404;1324;22286;-92
2022/12/28 07:18:59;;;;;;;28.40;25.60;;;;;;;-0.85;89.20;98518.74;105150;1324;22285;-92
2022/12/28 07:21:30;;;;;;;34.00;30.60;;;;;;;-0.80;89.36;98516.57;105062;1324;22273;-91
2022/12/28 07:23:59;;;;;;;39.40;35.40;;;;;;;-0.76;89.24;98516.15;105342;1324;22169;-92
2022/12/28 07:26:29;;;;;;;33.10;29.50;;;;;;;-0.67;89.35;98511.86;105060;1320;22238;-91
2022/12/28 07:29:00;;;;;;;27.90;25.00;;;;;;;-0.57;89.12;98512.35;105186;1324;22140;-88
2022/12/28 07:31:31;;;;;;;26.10;23.20;;;;;;;-0.47;89.13;98507.94;105485;1324;22114;-92
2022/12/28 07:34:06;;;;;;;29.50;26.70;;;;;;;-0.39;89.10;98510.81;105231;1324;22165;-92
2022/12/28 07:36:34;;;;;;;28.70;26.00;;;;;;;-0.32;89.13;98507.77;105673;1309;171035;-93
2022/12/28 07:39:02;;;;;;;28.30;25.70;;;;;;;-0.26;89.40;98505.52;105489;1324;22240;-93
2022/12/28 07:41:33;;;;;;;28.20;25.50;;;;;;;-0.20;89.35;98502.86;105577;1312;22142;-94
2022/12/28 07:44:03;;;;;;;27.00;23.20;;;;;;;-0.14;89.44;98498.14;105796;1309;22820;-92
2022/12/28 07:46:34;;;;;;;24.40;21.40;;;;;;;-0.05;89.31;98494.58;105306;1324;22310;-93
2022/12/28 07:49:02;;;;;;;23.00;20.50;;;;;;;0.06;89.16;98492.94;105549;1318;22251;-91
2022/12/28 07:51:33;;;;;;;22.60;20.30;;;;;;;0.15;89.24;98491.07;105554;1298;22184;-94
2022/12/28 07:54:03;;;;;;;21.60;19.50;;;;;;;0.26;89.29;98493.67;105434;1316;22236;-93
2022/12/28 07:56:32;;;;;;;25.00;22.70;;;;;;;0.35;89.43;98497.63;105622;1316;22167;-92
2022/12/28 07:59:04;;;;;;;25.80;23.10;;;;;;;0.43;89.50;98496.95;105680;1302;22224;-89
2022/12/28 08:01:35;;;;;;;25.70;23.40;;;;;;;0.51;89.43;98495.41;105344;1324;22265;-91
2022/12/28 08:04:06;;;;;;;26.10;23.60;;;;;;;0.55;89.27;98496.38;105261;1318;22212;-91
2022/12/28 08:06:37;;;;;;;22.20;20.00;;;;;;;0.57;89.34;98490.33;105729;1316;22293;-91
2022/12/28 08:09:07;;;;;;;21.70;19.60;;;;;;;0.64;89.14;98494.46;105384;1324;22254;-93
2022/12/28 08:11:37;;;;;;;26.40;23.20;;;;;;;0.73;88.87;98493.84;105490;1312;22178;-91
2022/12/28 08:14:06;;;;;;;28.40;25.70;;;;;;;0.83;89.23;98495.03;105285;1293;22299;-84
2022/12/28 08:16:37;;;;;;;32.40;29.40;;;;;;;0.90;89.03;98495.89;105253;1310;22174;-92
2022/12/28 08:19:06;;;;;;;49.10;44.30;;;;;;;0.94;88.96;98490.98;105074;1324;22281;-90
2022/12/28 08:21:38;;;;;;;54.50;49.10;;;;;;;0.97;89.09;98487.33;105335;1324;22227;-90
2022/12/28 08:24:07;;;;;;;55.90;50.30;;;;;;;1.02;89.22;98488.56;105077;1312;22127;-89
2022/12/28 08:26:38;;;;;;;51.30;45.90;;;;;;;1.06;89.18;98481.99;105009;1324;22221;-91
2022/12/28 08:29:10;;;;;;;51.50;46.10;;;;;;;1.10;89.11;98480.84;105054;1324;22170;-88
2022/12/28 08:31:40;;;;;;;47.50;42.20;;;;;;;1.16;88.90;98479.63;105414;1316;22197;-91
2022/12/28 08:34:12;;;;;;;45.90;35.50;;;;;;;1.26;88.88;98486.00;104955;1324;22912;-89
2022/12/28 08:36:40;;;;;;;36.90;31.10;;;;;;;1.38;88.94;98489.23;105479;1312;22160;-89
2022/12/28 08:39:08;;;;;;;32.50;29.10;;;;;;;1.47;89.09;98490.83;105605;1316;22212;-89
2022/12/28 08:41:36;;;;;;;27.50;24.70;;;;;;;1.53;89.01;98488.50;105552;1317;22107;-90
2022/12/28 08:44:04;;;;;;;27.60;24.70;;;;;;;1.65;89.27;98490.54;105335;1324;22196;-89
2022/12/28 08:46:33;;;;;;;26.20;23.60;;;;;;;1.74;89.37;98490.04;105321;1324;22218;-88
2022/12/28 08:49:04;;;;;;;27.70;24.90;;;;;;;1.83;89.02;98490.23;105331;1324;22178;-92
2022/12/28 08:51:35;;;;;;;33.90;30.50;;;;;;;1.89;89.01;98489.53;105130;1324;22115;-91
2022/12/28 08:54:03;;;;;;;26.40;22.90;;;;;;;1.99;88.93;98484.75;105398;1324;22826;-93
2022/12/28 08:56:37;;;;;;;24.90;22.40;;;;;;;2.11;88.79;98482.86;105200;1324;22957;-91
2022/12/28 08:59:06;;;;;;;23.70;21.40;;;;;;;2.23;88.90;98483.27;105694;1301;22189;-87
2022/12/28 09:01:38;;;;;;;24.30;20.20;;;;;;;2.35;88.99;98483.67;104977;1323;22110;-89
2022/12/28 09:04:19;;;;;;;25.00;22.60;;;;;;;2.45;88.87;98485.67;105657;1316;22150;-91
2022/12/28 09:06:48;;;;;;;24.50;22.00;;;;;;;2.52;88.55;98488.48;105469;1318;22683;-91
2022/12/28 09:09:20;;;;;;;25.60;22.00;;;;;;;2.61;88.88;98490.98;105348;1324;22137;-91
2022/12/28 09:12:15;;;;;;;23.30;20.50;;;;;;;2.70;88.69;98488.66;105215;1324;21863;-92
2022/12/28 09:14:44;;;;;;;27.70;21.60;;;;;;;2.76;88.68;98479.91;105315;1324;21871;-88
2022/12/28 09:17:12;;;;;;;23.90;21.50;;;;;;;2.79;88.45;98481.05;105285;1320;22227;-93
2022/12/28 09:19:40;;;;;;;24.60;22.00;;;;;;;2.87;88.24;98476.64;105148;1324;22148;-93
2022/12/28 09:22:08;;;;;;;23.90;21.40;;;;;;;3.00;88.22;98478.76;105267;1325;22170;-92
2022/12/28 09:24:43;;;;;;;30.90;21.40;;;;;;;3.12;88.19;98476.34;105381;1297;23432;31
2022/12/28 09:27:11;;;;;;;22.00;19.40;;;;;;;3.20;87.99;98475.06;105105;1320;22331;-90
2022/12/28 09:29:39;;;;;;;24.50;19.50;;;;;;;3.26;87.91;98476.55;105607;1298;22176;-89
2022/12/28 09:32:07;;;;;;;21.50;19.10;;;;;;;3.32;87.98;98475.98;105261;1324;23038;-90
2022/12/28 09:34:35;;;;;;;19.60;17.60;;;;;;;3.39;87.80;98477.79;105003;1324;22112;-88
2022/12/28 09:37:07;;;;;;;24.00;19.50;;;;;;;3.45;87.87;98477.09;105689;1316;22218;-86
2022/12/28 09:39:35;;;;;;;21.30;19.10;;;;;;;3.49;87.80;98474.70;105277;1324;22218;-86
2022/12/28 09:42:20;;;;;;;20.20;17.80;;;;;;;3.51;87.43;98471.44;105273;1319;22230;-86
2022/12/28 09:44:54;;;;;;;20.80;18.60;;;;;;;3.51;87.40;98467.77;105687;1294;22200;-87
2022/12/28 09:47:23;;;;;;;18.00;16.20;;;;;;;3.51;87.28;98463.71;105703;1302;22077;-88
2022/12/28 09:50:24;;;;;;;21.00;17.10;;;;;;;3.51;86.88;98461.59;105642;1300;22225;-89
2022/12/28 09:53:14;;;;;;;16.60;14.90;;;;;;;3.51;87.17;98455.56;105701;1312;22191;-87
2022/12/28 09:55:56;;;;;;;17.90;15.90;;;;;;;3.50;86.85;98453.30;105626;1302;22173;-90
2022/12/28 09:58:24;;;;;;;19.90;15.80;;;;;;;3.48;86.44;98456.25;105012;1324;22231;-90
2022/12/28 10:00:55;;;;;;;18.80;15.90;;;;;;;3.47;86.60;98451.06;104910;1324;22258;-88
2022/12/28 10:03:30;;;;;;;16.80;13.30;;;;;;;3.49;86.59;98450.35;105453;1317;22162;-89
2022/12/28 10:05:59;;;;;;;19.30;13.00;;;;;;;3.55;86.37;98446.04;105261;1324;22107;-89
2022/12/28 10:08:27;;;;;;;17.20;12.70;;;;;;;3.61;86.19;98449.39;105073;1324;22195;-86
2022/12/28 10:11:00;;;;;;;19.90;13.30;;;;;;;3.64;85.86;98444.58;104921;1326;22922;-89
2022/12/28 10:13:37;;;;;;;15.10;12.70;;;;;;;3.66;86.07;98447.19;104984;1322;22246;-86
2022/12/28 10:16:30;;;;;;;22.50;20.40;;;;;;;3.67;85.86;98442.13;105414;1308;22089;-86
2022/12/28 10:18:59;;;;;;;17.50;15.60;;;;;;;3.68;85.95;98445.63;105336;1314;22212;-88
2022/12/28 10:21:30;;;;;;;17.60;13.80;;;;;;;3.71;85.48;98445.24;104964;1327;22950;-87
2022/12/28 10:24:05;;;;;;;19.30;17.30;;;;;;;3.71;85.30;98442.95;104886;1327;22833;-88
2022/12/28 10:26:54;;;;;;;18.30;16.10;;;;;;;3.71;85.16;98442.58;105214;1320;22379;-87
2022/12/28 10:29:24;;;;;;;20.60;15.70;;;;;;;3.71;85.14;98433.84;104914;1326;22406;-90
2022/12/28 10:32:08;;;;;;;20.70;16.30;;;;;;;3.70;84.49;98431.33;104911;1327;22254;-89
2022/12/28 10:34:44;;;;;;;18.50;16.40;;;;;;;3.69;84.58;98427.46;104983;1327;22086;-86
2022/12/28 10:37:16;;;;;;;24.90;18.10;;;;;;;3.70;84.40;98423.64;105000;1326;22326;-89
2022/12/28 10:39:53;;;;;;;20.20;17.00;;;;;;;3.68;84.28;98412.98;105441;1306;22311;-91
2022/12/28 10:42:27;;;;;;;21.90;16.50;;;;;;;3.72;84.36;98411.46;104990;1321;22217;-93
2022/12/28 10:45:02;;;;;;;27.10;16.80;;;;;;;3.78;84.25;98405.64;105103;1325;22212;-88
2022/12/28 10:47:34;;;;;;;19.10;16.80;;;;;;;3.86;84.22;98403.91;104882;1327;22136;-88
2022/12/28 10:50:03;;;;;;;22.80;18.70;;;;;;;3.93;84.01;98395.77;104993;1327;22242;-92
2022/12/28 10:52:56;;;;;;;32.70;19.20;;;;;;;3.98;83.81;98391.57;105379;1313;22237;-90
2022/12/28 10:55:31;;;;;;;31.40;23.30;;;;;;;4.02;83.97;98379.80;105375;1320;22100;-88
2022/12/28 10:58:21;;;;;;;32.10;24.90;;;;;;;4.04;83.72;98371.08;105095;1319;22821;-89
2022/12/28 11:01:14;;;;;;;30.40;25.60;;;;;;;4.03;83.67;98365.95;104956;1327;22195;-88
2022/12/28 11:03:53;;;;;;;39.30;26.30;;;;;;;4.00;83.50;98358.05;104913;1327;22857;-89
2022/12/28 11:06:49;;;;;;;41.60;31.10;;;;;;;4.04;83.57;98361.52;104953;1327;22826;-89
2022/12/28 11:09:29;;;;;;;59.50;49.20;;;;;;;4.06;83.52;98357.19;104869;1327;22211;-86
2022/12/28 11:12:17;;;;;;;31.90;26.50;;;;;;;4.09;83.39;98350.82;105359;1305;22167;-91
2022/12/28 11:14:45;;;;;;;38.80;27.40;;;;;;;4.13;83.55;98344.10;105714;1298;22061;-89
2022/12/28 11:17:13;;;;;;;27.60;24.60;;;;;;;4.19;83.09;98337.77;105839;1292;22275;-87
2022/12/28 11:19:41;;;;;;;30.20;27.00;;;;;;;4.23;83.04;98337.56;105447;1323;22237;-91
2022/12/28 11:22:12;;;;;;;34.30;29.70;;;;;;;4.24;82.63;98335.66;105741;1306;22862;-87
2022/12/28 11:24:40;;;;;;;36.90;33.00;;;;;;;4.25;82.50;98326.87;105798;1302;22214;-86
2022/12/28 11:27:18;;;;;;;43.40;38.90;;;;;;;4.29;82.42;98321.98;105309;1310;22187;-88
2022/12/28 11:29:54;;;;;;;34.90;31.40;;;;;;;4.35;81.70;98313.02;105641;1317;22094;-86
2022/12/28 11:32:37;;;;;;;32.70;26.40;;;;;;;4.41;81.45;98305.04;105312;1324;22292;-87
2022/12/28 11:35:06;;;;;;;30.70;24.60;;;;;;;4.62;82.07;98303.68;105730;1317;22103;-86
2022/12/28 11:37:34;;;;;;;25.40;21.80;;;;;;;4.76;81.47;98292.95;105412;1324;22222;-87
2022/12/28 11:40:02;;;;;;;27.80;23.00;;;;;;;4.87;81.68;98293.41;105159;1324;22252;-91
2022/12/28 11:42:31;;;;;;;31.90;25.30;;;;;;;4.96;80.91;98290.31;105505;1317;22220;-93
2022/12/28 11:45:51;;;;;;;35.90;30.50;;;;;;;5.01;81.04;98285.67;105684;1318;22180;-90
2022/12/28 11:49:10;;;;;;;53.70;48.00;;;;;;;5.13;81.22;98287.00;105703;1317;22114;-93
2022/12/28 11:51:38;;;;;;;65.00;58.30;;;;;;;5.37;81.20;98288.11;105392;1324;22210;-90
2022/12/28 11:54:15;;;;;;;55.30;49.50;;;;;;;6.54;81.00;98280.53;105738;1292;22558;-95
2022/12/28 11:56:43;;;;;;;31.50;27.80;;;;;;;8.02;80.29;98270.85;105417;1325;22192;-92
2022/12/28 11:59:25;;;;;;;23.60;21.20;;;;;;;8.47;79.44;98270.50;105418;1324;22221;-93
2022/12/28 12:02:37;;;;;;;16.90;14.60;;;;;;;8.73;78.00;98270.90;105430;1287;23177;-89
2022/12/28 12:05:36;;;;;;;30.60;17.20;;;;;;;10.00;78.65;98258.95;105140;1327;22149;-94
2022/12/28 12:08:10;;;;;;;24.20;19.90;;;;;;;11.29;76.57;98253.60;105193;1325;22168;-91